Terminal Aerodrome Forecast
Issued by NWS

Home | Current Version | Previous Version | Graphics & Text | Print | Product List | Glossary On
Versions: 1 2 3 4 5 6 7 8 9 10 11 12 13 14 15 16 17 18 19 20 21 22 23 24 25 26 27 28
641
FTUS45 KGGW 091128
TAFOLF
TAF
KOLF 091128Z 0912/1012 07005KT P6SM SCT060
     FM091600 07005KT P6SM BKN030
     FM100600 08008KT P6SM BKN020=

USA.gov is the U.S. government's official web portal to all federal, state and local government web resources and services.